createdAt,value
2023-04-05T00:01:43.326Z,4.51
2023-04-05T00:04:12.109Z,4.52
2023-04-05T00:06:44.155Z,4.52
2023-04-05T00:09:13.288Z,4.48
2023-04-05T00:11:41.971Z,4.48
2023-04-05T00:14:10.099Z,4.48
2023-04-05T00:16:38.765Z,4.49
2023-04-05T00:19:06.905Z,4.51
2023-04-05T00:21:38.224Z,4.54
2023-04-05T00:24:07.633Z,4.55
2023-04-05T00:26:36.450Z,4.52
2023-04-05T00:29:06.159Z,4.49
2023-04-05T00:31:34.271Z,4.43
2023-04-05T00:34:02.668Z,4.41
2023-04-05T00:36:31.241Z,4.40
2023-04-05T00:38:59.440Z,4.42
2023-04-05T00:41:27.678Z,4.44
2023-04-05T00:43:57.202Z,4.41
2023-04-05T00:46:36.620Z,4.41
2023-04-05T00:49:04.890Z,4.41
2023-04-05T00:51:36.754Z,4.43
2023-04-05T00:54:05.668Z,4.44
2023-04-05T00:56:33.814Z,4.41
2023-04-05T00:59:04.734Z,4.40
2023-04-05T01:01:38.075Z,4.42
2023-04-05T01:04:07.355Z,4.40
2023-04-05T01:06:58.535Z,4.38
2023-04-05T01:09:48.944Z,4.37
2023-04-05T01:12:18.038Z,4.35
2023-04-05T01:14:55.658Z,4.35
2023-04-05T01:17:28.404Z,4.36
2023-04-05T01:20:00.624Z,4.38
2023-04-05T01:22:40.656Z,4.36
2023-04-05T01:25:28.513Z,4.34
2023-04-05T01:27:59.721Z,4.32
2023-04-05T01:30:39.689Z,4.34
2023-04-05T01:33:17.459Z,4.34
2023-04-05T01:36:14.365Z,4.31
2023-04-05T01:38:42.558Z,4.33
2023-04-05T01:41:12.687Z,4.31
2023-04-05T01:43:42.873Z,4.32
2023-04-05T01:46:11.151Z,4.29
2023-04-05T01:48:39.229Z,4.28
2023-04-05T01:51:07.552Z,4.27
2023-04-05T01:53:35.653Z,4.27
2023-04-05T01:56:03.932Z,4.26
2023-04-05T01:58:32.416Z,4.27
2023-04-05T02:01:00.584Z,4.29
2023-04-05T02:03:30.552Z,4.29
2023-04-05T02:05:58.877Z,4.30
2023-04-05T02:08:26.962Z,4.34
2023-04-05T02:10:55.465Z,4.31
2023-04-05T02:13:26.362Z,4.32
2023-04-05T02:15:57.415Z,4.34
2023-04-05T02:18:30.263Z,4.34
2023-04-05T02:21:08.128Z,4.34
2023-04-05T02:23:36.830Z,4.34
2023-04-05T02:26:05.177Z,4.35
2023-04-05T02:28:36.113Z,4.35
2023-04-05T02:31:10.035Z,4.34
2023-04-05T02:33:39.148Z,4.36
2023-04-05T02:36:09.521Z,4.37
2023-04-05T02:38:38.137Z,4.38
2023-04-05T02:41:11.897Z,4.39
2023-04-05T02:43:40.008Z,4.40
2023-04-05T02:46:08.242Z,4.41
2023-04-05T02:48:40.943Z,4.39
2023-04-05T02:51:09.941Z,4.39
2023-04-05T02:53:40.549Z,4.41
2023-04-05T02:56:11.790Z,4.44
2023-04-05T02:58:41.280Z,4.45
2023-04-05T03:01:10.189Z,4.43
2023-04-05T03:03:40.915Z,4.42
2023-04-05T03:06:13.606Z,4.41
2023-04-05T03:08:49.511Z,4.46
2023-04-05T03:11:25.738Z,4.49
2023-04-05T03:13:57.559Z,4.52
2023-04-05T03:16:37.460Z,4.54
2023-04-05T03:19:13.897Z,4.54
2023-04-05T03:21:49.783Z,4.57
2023-04-05T03:24:35.904Z,4.55
2023-04-05T03:27:06.361Z,4.51
2023-04-05T03:29:43.980Z,4.53
2023-04-05T03:32:16.298Z,4.55
2023-04-05T03:34:49.735Z,4.52
2023-04-05T03:37:18.296Z,4.48
2023-04-05T03:39:51.237Z,4.45
2023-04-05T03:42:20.110Z,4.48
2023-04-05T03:44:52.273Z,4.49
2023-04-05T03:47:21.013Z,4.43
2023-04-05T03:49:49.585Z,4.41
2023-04-05T03:52:17.653Z,4.47
2023-04-05T03:54:46.576Z,4.53
2023-04-05T03:57:16.894Z,4.51
2023-04-05T03:59:47.293Z,4.49
2023-04-05T04:02:16.629Z,4.47
2023-04-05T04:04:45.608Z,4.44
2023-04-05T04:07:14.470Z,4.42
2023-04-05T04:09:42.905Z,4.40
2023-04-05T04:12:15.917Z,4.37
2023-04-05T04:14:52.344Z,4.34
2023-04-05T04:17:52.967Z,4.33
2023-04-05T04:21:06.956Z,4.32
2023-04-05T04:23:50.221Z,4.33
2023-04-05T04:26:29.410Z,4.30
2023-04-05T04:29:17.944Z,4.31
2023-04-05T04:32:27.293Z,4.31
2023-04-05T04:35:18.541Z,4.28
2023-04-05T04:38:00.251Z,4.25
2023-04-05T04:40:54.091Z,4.23
2023-04-05T04:43:58.689Z,4.24
2023-04-05T04:46:35.047Z,4.31
2023-04-05T04:49:17.283Z,4.32
2023-04-05T04:51:51.614Z,4.30
2023-04-05T04:54:22.560Z,4.26
2023-04-05T04:56:50.874Z,4.25
2023-04-05T04:59:19.330Z,4.25
2023-04-05T05:01:49.366Z,4.24
2023-04-05T05:04:17.721Z,4.27
2023-04-05T05:06:46.409Z,4.27
2023-04-05T05:09:14.524Z,4.21
2023-04-05T05:11:59.200Z,4.17
2023-04-05T05:14:27.442Z,4.13
2023-04-05T05:16:59.123Z,4.10
2023-04-05T05:19:29.969Z,4.07
2023-04-05T05:21:58.869Z,4.09
2023-04-05T05:24:27.814Z,4.13
2023-04-05T05:26:56.077Z,4.19
2023-04-05T05:29:25.871Z,4.25
2023-04-05T05:31:54.252Z,4.27
2023-04-05T05:34:23.734Z,4.27
2023-04-05T05:37:01.812Z,4.25
2023-04-05T05:39:30.641Z,4.24
2023-04-05T05:41:58.933Z,4.25
2023-04-05T05:44:27.075Z,4.23
2023-04-05T05:46:58.670Z,4.23
2023-04-05T05:49:26.995Z,4.22
2023-04-05T05:51:57.523Z,4.24
2023-04-05T05:54:25.738Z,4.18
2023-04-05T05:56:54.114Z,4.19
2023-04-05T05:59:22.167Z,4.17
2023-04-05T06:01:51.392Z,4.15
2023-04-05T06:04:21.064Z,4.19
2023-04-05T06:07:28.636Z,4.22
2023-04-05T06:09:57.594Z,4.25
2023-04-05T06:12:27.570Z,4.24
2023-04-05T06:14:57.401Z,4.19
2023-04-05T06:17:26.017Z,4.14
2023-04-05T06:19:54.157Z,4.15
2023-04-05T06:22:23.718Z,4.14
2023-04-05T06:24:51.873Z,4.18
2023-04-05T06:27:20.188Z,4.20
2023-04-05T06:29:48.861Z,4.17
2023-04-05T06:32:17.062Z,4.20
2023-04-05T06:34:48.786Z,4.24
2023-04-05T06:37:16.833Z,4.23
2023-04-05T06:39:45.117Z,4.25
2023-04-05T06:42:13.385Z,4.22
2023-04-05T06:44:44.949Z,4.16
2023-04-05T06:47:13.320Z,4.13
2023-04-05T06:49:41.973Z,4.13
2023-04-05T06:52:10.092Z,4.13
2023-04-05T06:54:39.899Z,4.16
2023-04-05T06:57:08.156Z,4.19
2023-04-05T06:59:36.377Z,4.22
2023-04-05T07:02:05.060Z,4.24
2023-04-05T07:04:37.088Z,4.28
2023-04-05T07:07:06.695Z,4.28
2023-04-05T07:09:36.220Z,4.29
2023-04-05T07:12:06.212Z,4.32
2023-04-05T07:14:36.075Z,4.34
2023-04-05T07:17:06.333Z,4.37
2023-04-05T07:19:35.590Z,4.45
2023-04-05T07:22:03.834Z,4.49
2023-04-05T07:24:33.139Z,4.49
2023-04-05T07:27:04.164Z,4.50
2023-04-05T07:29:35.045Z,4.53
2023-04-05T07:32:04.616Z,4.50
2023-04-05T07:34:36.816Z,4.50
2023-04-05T07:37:05.644Z,4.51
2023-04-05T07:39:33.941Z,4.53
2023-04-05T07:42:02.115Z,4.53
2023-04-05T07:44:31.054Z,4.53
2023-04-05T07:46:59.221Z,4.56
2023-04-05T07:49:27.832Z,4.58
2023-04-05T07:51:58.865Z,4.62
2023-04-05T07:54:26.926Z,4.67
2023-04-05T07:56:57.653Z,4.69
2023-04-05T07:59:26.104Z,4.70
2023-04-05T08:01:57.233Z,4.67
2023-04-05T08:04:30.570Z,4.65
2023-04-05T08:06:58.808Z,4.66
2023-04-05T08:09:26.919Z,4.69
2023-04-05T08:11:55.089Z,4.69
2023-04-05T08:14:23.480Z,4.72
2023-04-05T08:16:52.078Z,4.78
2023-04-05T08:19:20.214Z,4.82
2023-04-05T08:21:48.569Z,4.84
2023-04-05T08:24:17.020Z,4.86
2023-04-05T08:26:45.846Z,4.90
2023-04-05T08:29:15.536Z,4.98
2023-04-05T08:31:44.380Z,5.00
2023-04-05T08:34:13.018Z,4.97
2023-04-05T08:36:43.107Z,4.97
2023-04-05T08:39:11.596Z,4.97
2023-04-05T08:41:42.080Z,4.99
2023-04-05T08:44:10.774Z,4.99
2023-04-05T08:46:39.076Z,5.01
2023-04-05T08:49:08.376Z,5.04
2023-04-05T08:51:39.256Z,5.11
2023-04-05T08:54:07.396Z,5.16
2023-04-05T08:56:36.879Z,5.23
2023-04-05T08:59:08.291Z,5.32
2023-04-05T09:01:43.315Z,5.39
2023-04-05T09:04:14.768Z,5.36
2023-04-05T09:06:44.652Z,5.31
2023-04-05T09:09:12.802Z,5.32
2023-04-05T09:11:43.515Z,5.31
2023-04-05T09:14:11.814Z,5.27
2023-04-05T09:16:44.222Z,-104.41
2023-04-05T09:19:12.508Z,-128.00
2023-04-05T09:22:00.879Z,-128.00
2023-04-05T09:24:43.166Z,-128.00
2023-04-05T09:27:16.933Z,-128.00
2023-04-05T09:29:49.348Z,-128.00
2023-04-05T09:32:21.612Z,-128.00
2023-04-05T09:34:53.367Z,-128.00
2023-04-05T09:37:28.201Z,-128.00
2023-04-05T09:40:04.590Z,-128.00
2023-04-05T09:42:45.051Z,-128.00
2023-04-05T09:45:18.594Z,-128.00
2023-04-05T09:48:03.085Z,-128.00
2023-04-05T09:50:31.751Z,-128.00
2023-04-05T09:53:10.982Z,-128.00
2023-04-05T09:55:40.683Z,-128.00
2023-04-05T09:58:14.203Z,-128.00
2023-04-05T10:01:00.013Z,-128.00
2023-04-05T10:03:41.356Z,-128.00
2023-04-05T10:06:09.465Z,-128.00
2023-04-05T10:08:38.257Z,-128.00
2023-04-05T10:11:06.870Z,-128.00
2023-04-05T10:13:34.974Z,-128.00
2023-04-05T10:16:03.194Z,-128.00
2023-04-05T10:18:39.384Z,-128.00
2023-04-05T10:21:11.733Z,-128.00
2023-04-05T10:23:40.145Z,-128.00
2023-04-05T10:26:17.108Z,-128.00
2023-04-05T10:28:47.912Z,-128.00
2023-04-05T10:31:34.187Z,-128.00
2023-04-05T10:34:15.052Z,-128.00
2023-04-05T10:36:51.185Z,-128.00
2023-04-05T10:39:30.539Z,-128.00
2023-04-05T10:42:06.157Z,-128.00
2023-04-05T10:44:34.690Z,-128.00
2023-04-05T10:47:04.425Z,-128.00
2023-04-05T10:49:36.566Z,-128.00
2023-04-05T10:52:05.775Z,-128.00
2023-04-05T10:54:34.965Z,-128.00
2023-04-05T10:57:06.897Z,-128.00
2023-04-05T10:59:41.486Z,-128.00
2023-04-05T11:02:09.845Z,-128.00
2023-04-05T11:04:41.676Z,-128.00
2023-04-05T11:07:11.103Z,-128.00
2023-04-05T11:09:50.129Z,-128.00
2023-04-05T11:12:18.456Z,-128.00
2023-04-05T11:14:47.263Z,-128.00
2023-04-05T11:17:26.340Z,-128.00
2023-04-05T11:20:05.039Z,-128.00
2023-04-05T11:22:33.770Z,-128.00
2023-04-05T11:25:03.458Z,-128.00
2023-04-05T11:27:34.160Z,-128.00
2023-04-05T11:30:02.683Z,-128.00
2023-04-05T11:32:43.740Z,-128.00
2023-04-05T11:35:16.201Z,-128.00
2023-04-05T11:38:02.709Z,-128.00
2023-04-05T11:40:35.208Z,-128.00
2023-04-05T11:43:08.677Z,-128.00
2023-04-05T11:45:38.581Z,-128.00
2023-04-05T11:48:08.344Z,-128.00
2023-04-05T11:50:37.298Z,-128.00
2023-04-05T11:53:14.103Z,-128.00
2023-04-05T11:55:44.152Z,-128.00
2023-04-05T11:58:21.926Z,-128.00
2023-04-05T12:01:07.394Z,-128.00
2023-04-05T12:03:38.689Z,-128.00
2023-04-05T12:06:08.334Z,-128.00
2023-04-05T12:08:43.004Z,-128.00
2023-04-05T12:11:16.156Z,-128.00
2023-04-05T12:13:46.456Z,-128.00
2023-04-05T12:16:14.620Z,-128.00
2023-04-05T12:18:42.837Z,-128.00
2023-04-05T12:21:11.013Z,-128.00
2023-04-05T12:23:39.194Z,-128.00
2023-04-05T12:26:08.291Z,-128.00
2023-04-05T12:28:58.814Z,-128.00
2023-04-05T12:31:44.602Z,-128.00
2023-04-05T12:34:14.413Z,-128.00
2023-04-05T12:36:44.787Z,-128.00
2023-04-05T12:39:16.034Z,-128.00
2023-04-05T12:41:44.594Z,-128.00
2023-04-05T12:44:15.961Z,-128.00
2023-04-05T12:46:47.650Z,-128.00
2023-04-05T12:49:16.836Z,-128.00
2023-04-05T12:51:46.344Z,-128.00
2023-04-05T12:54:15.096Z,-128.00
2023-04-05T12:56:43.304Z,-128.00
2023-04-05T12:59:11.746Z,-128.00
2023-04-05T13:01:39.918Z,-128.00
2023-04-05T13:04:16.182Z,-128.00
2023-04-05T13:06:50.267Z,-128.00
2023-04-05T13:09:18.266Z,-128.00
2023-04-05T13:11:48.648Z,-128.00
2023-04-05T13:14:18.022Z,-128.00
2023-04-05T13:16:46.243Z,-128.00
2023-04-05T13:19:14.218Z,-128.00
2023-04-05T13:21:42.842Z,-128.00
2023-04-05T13:24:12.865Z,-128.00
2023-04-05T13:26:44.514Z,-128.00
2023-04-05T13:29:13.115Z,-128.00
2023-04-05T13:31:41.355Z,-128.00
2023-04-05T13:34:10.482Z,-128.00
2023-04-05T13:36:38.614Z,-128.00
2023-04-05T13:39:06.799Z,-128.00
2023-04-05T13:41:36.001Z,-128.00
2023-04-05T13:44:06.454Z,-128.00
2023-04-05T13:46:35.913Z,-128.00
2023-04-05T13:49:04.070Z,-128.00
2023-04-05T13:51:34.612Z,-128.00
2023-04-05T13:54:02.873Z,-128.00
2023-04-05T13:56:35.447Z,-128.00
2023-04-05T13:59:04.561Z,-128.00
2023-04-05T14:01:35.962Z,-128.00
2023-04-05T14:04:05.109Z,-128.00
2023-04-05T14:06:33.825Z,-128.00
2023-04-05T14:09:02.247Z,-128.00
2023-04-05T14:11:32.049Z,-128.00
2023-04-05T14:14:00.451Z,-128.00
2023-04-05T14:16:30.063Z,-128.00
2023-04-05T14:18:58.781Z,-128.00
2023-04-05T14:21:27.677Z,-128.00
2023-04-05T14:23:58.051Z,-128.00
2023-04-05T14:26:27.045Z,-128.00
2023-04-05T14:28:55.144Z,-128.00
2023-04-05T14:31:26.389Z,-128.00
2023-04-05T14:33:55.980Z,-128.00
2023-04-05T14:36:24.288Z,-128.00
2023-04-05T14:38:56.984Z,-128.00
2023-04-05T14:41:27.325Z,-128.00
2023-04-05T14:43:56.049Z,-128.00
2023-04-05T14:46:24.300Z,-128.00
2023-04-05T14:48:52.614Z,-128.00
2023-04-05T14:51:20.990Z,-128.00
2023-04-05T14:53:49.511Z,-128.00
2023-04-05T14:56:19.426Z,-128.00
2023-04-05T14:58:48.145Z,-128.00
2023-04-05T15:01:16.642Z,-128.00
2023-04-05T15:03:46.384Z,-128.00
2023-04-05T15:06:16.549Z,-128.00
2023-04-05T15:08:53.986Z,-128.00
2023-04-05T15:11:22.976Z,-128.00
2023-04-05T15:13:51.839Z,-128.00
2023-04-05T15:16:21.057Z,-128.00
2023-04-05T15:18:51.182Z,-128.00
2023-04-05T15:21:20.243Z,-128.00
2023-04-05T15:23:48.867Z,-128.00
2023-04-05T15:26:17.413Z,-128.00
2023-04-05T15:28:45.946Z,-128.00
2023-04-05T15:31:14.095Z,-128.00
2023-04-05T15:33:44.540Z,-128.00
2023-04-05T15:36:13.976Z,-128.00
2023-04-05T15:38:43.195Z,-128.00
2023-04-05T15:41:11.365Z,-128.00
2023-04-05T15:43:39.622Z,-128.00
2023-04-05T15:46:07.976Z,-128.00
2023-04-05T15:48:37.362Z,-128.00
2023-04-05T15:51:05.643Z,-128.00
2023-04-05T15:53:34.043Z,-128.00
2023-04-05T15:56:02.755Z,-128.00
2023-04-05T15:58:31.273Z,-128.00
2023-04-05T16:00:59.522Z,-128.00
2023-04-05T16:03:31.944Z,-128.00
2023-04-05T16:06:24.871Z,-128.00
2023-04-05T16:08:53.050Z,-128.00
2023-04-05T16:11:21.684Z,-128.00
2023-04-05T16:13:57.405Z,-128.00
2023-04-05T16:16:35.289Z,-128.00
2023-04-05T16:19:08.253Z,-128.00
2023-04-05T16:21:36.815Z,-128.00
2023-04-05T16:24:06.508Z,-128.00
2023-04-05T16:26:34.775Z,-128.00
2023-04-05T16:29:03.798Z,-128.00
2023-04-05T16:31:32.524Z,-128.00
2023-04-05T16:34:01.070Z,-128.00
2023-04-05T16:36:29.674Z,-128.00
2023-04-05T16:38:57.853Z,-128.00
2023-04-05T16:41:27.707Z,-128.00
2023-04-05T16:43:56.085Z,-128.00
2023-04-05T16:46:24.805Z,-128.00
2023-04-05T16:48:53.605Z,-128.00
2023-04-05T16:51:22.891Z,-128.00
2023-04-05T16:53:51.035Z,-128.00
2023-04-05T16:56:19.851Z,-128.00
2023-04-05T16:58:48.245Z,-128.00
2023-04-05T17:01:17.875Z,-128.00
2023-04-05T17:03:47.328Z,-128.00
2023-04-05T17:06:15.988Z,-128.00
2023-04-05T17:08:44.271Z,-128.00
2023-04-05T17:11:12.419Z,-128.00
2023-04-05T17:13:47.131Z,-128.00
2023-04-05T17:16:16.818Z,-128.00
2023-04-05T17:18:45.154Z,-128.00
2023-04-05T17:21:20.167Z,-128.00
2023-04-05T17:23:48.755Z,-128.00
2023-04-05T17:26:16.960Z,-128.00
2023-04-05T17:28:45.590Z,-128.00
2023-04-05T17:31:14.136Z,-128.00
2023-04-05T17:33:48.837Z,-128.00
2023-04-05T17:36:17.922Z,-128.00
2023-04-05T17:38:46.810Z,-128.00
2023-04-05T17:41:15.233Z,-128.00
2023-04-05T17:43:43.823Z,-128.00
2023-04-05T17:46:14.094Z,-128.00
2023-04-05T17:48:58.697Z,-128.00
2023-04-05T17:51:43.134Z,-128.00
2023-04-05T17:54:12.554Z,-128.00
2023-04-05T17:56:40.978Z,-128.00
2023-04-05T17:59:09.464Z,-128.00
2023-04-05T18:01:40.496Z,-128.00
2023-04-05T18:07:39.372Z,-128.00
2023-04-05T18:10:32.690Z,-128.00
2023-04-05T18:15:33.239Z,-128.00
2023-04-05T18:18:01.851Z,-128.00
2023-04-05T18:20:30.251Z,-128.00
2023-04-05T18:23:08.172Z,-128.00
2023-04-05T18:25:36.505Z,-128.00
2023-04-05T18:28:22.229Z,-128.00
2023-04-05T18:30:59.717Z,-128.00
2023-04-05T18:33:44.486Z,-128.00
2023-04-05T18:36:21.521Z,-128.00
2023-04-05T18:38:49.923Z,-128.00
2023-04-05T18:41:18.189Z,-128.00
2023-04-05T18:43:48.237Z,-128.00
2023-04-05T18:46:18.736Z,-128.00
2023-04-05T18:48:56.278Z,-128.00
2023-04-05T18:51:24.705Z,-128.00
2023-04-05T18:53:52.923Z,-128.00
2023-04-05T18:56:21.477Z,-128.00
2023-04-05T18:58:52.848Z,-128.00
2023-04-05T19:01:22.364Z,-128.00
2023-04-05T19:03:51.063Z,-128.00
2023-04-05T19:06:19.292Z,-128.00
2023-04-05T19:08:49.034Z,-128.00
2023-04-05T19:11:18.916Z,-128.00
2023-04-05T19:13:47.118Z,-128.00
2023-04-05T19:16:17.630Z,-128.00
2023-04-05T19:18:46.010Z,-128.00
2023-04-05T19:21:17.773Z,-128.00
2023-04-05T19:23:48.112Z,-128.00
2023-04-05T19:26:16.446Z,-128.00
2023-04-05T19:28:44.855Z,-128.00
2023-04-05T19:31:13.188Z,-128.00
2023-04-05T19:33:42.065Z,-128.00
2023-04-05T19:36:10.694Z,-128.00
2023-04-05T19:38:39.655Z,-128.00
2023-04-05T19:41:09.577Z,-128.00
2023-04-05T19:43:41.319Z,-128.00
2023-04-05T19:46:10.985Z,-128.00
2023-04-05T19:48:42.134Z,-128.00
2023-04-05T19:51:11.378Z,-128.00
2023-04-05T19:53:48.511Z,-128.00
2023-04-05T19:56:24.747Z,-128.00
2023-04-05T19:58:59.053Z,-128.00
2023-04-05T20:01:38.875Z,-128.00
2023-04-05T20:04:15.403Z,-128.00
2023-04-05T20:06:55.316Z,-128.00
2023-04-05T20:09:29.452Z,-128.00
2023-04-05T20:12:02.029Z,-128.00
2023-04-05T20:14:42.142Z,-128.00
2023-04-05T20:17:12.583Z,-128.00
2023-04-05T20:19:41.670Z,-128.00
2023-04-05T20:22:10.068Z,-128.00
2023-04-05T20:24:39.748Z,-128.00
2023-04-05T20:27:15.170Z,-128.00
2023-04-05T20:29:44.380Z,-128.00
2023-04-05T20:32:12.592Z,-128.00
2023-04-05T20:34:43.862Z,-128.00
2023-04-05T20:37:19.255Z,-128.00
2023-04-05T20:39:47.601Z,-128.00
2023-04-05T20:42:16.512Z,-128.00
2023-04-05T20:44:49.219Z,-128.00
2023-04-05T20:47:17.648Z,-128.00
2023-04-05T20:49:47.878Z,-128.00
2023-04-05T20:52:17.588Z,-128.00
2023-04-05T20:54:47.356Z,-128.00
2023-04-05T20:57:16.266Z,-128.00
2023-04-05T20:59:44.901Z,-128.00
2023-04-05T21:02:13.194Z,-128.00
2023-04-05T21:04:42.652Z,-128.00
2023-04-05T21:07:12.207Z,-128.00
2023-04-05T21:09:41.508Z,-128.00
2023-04-05T21:12:11.409Z,-128.00
2023-04-05T21:14:39.624Z,-128.00
2023-04-05T21:17:07.715Z,-128.00
2023-04-05T21:19:36.278Z,-128.00
2023-04-05T21:22:04.478Z,-128.00
2023-04-05T21:24:32.602Z,-128.00
2023-04-05T21:27:01.481Z,-128.00
2023-04-05T21:29:35.145Z,-128.00
2023-04-05T21:32:03.838Z,-128.00
2023-04-05T21:34:32.258Z,-128.00
2023-04-05T21:37:03.969Z,-128.00
2023-04-05T21:39:33.153Z,-128.00
2023-04-05T21:42:01.396Z,-128.00
2023-04-05T21:44:30.193Z,-128.00
2023-04-05T21:46:59.575Z,-128.00
2023-04-05T21:49:38.181Z,-128.00
2023-04-05T21:52:06.401Z,-128.00
2023-04-05T21:54:34.664Z,-128.00
2023-04-05T21:57:05.034Z,-128.00
2023-04-05T21:59:33.700Z,-128.00
2023-04-05T22:02:06.834Z,-128.00
2023-04-05T22:04:36.520Z,-128.00
2023-04-05T22:07:05.773Z,-128.00
2023-04-05T22:09:34.172Z,-128.00
2023-04-05T22:12:03.345Z,-128.00
2023-04-05T22:14:31.642Z,-128.00
2023-04-05T22:16:59.912Z,-128.00
2023-04-05T22:19:32.715Z,-128.00
2023-04-05T22:22:01.817Z,-128.00
2023-04-05T22:24:30.552Z,-128.00
2023-04-05T22:26:58.735Z,-128.00
2023-04-05T22:29:26.849Z,-128.00
2023-04-05T22:31:55.614Z,-128.00
2023-04-05T22:34:23.910Z,-128.00
2023-04-05T22:36:52.025Z,-128.00
2023-04-05T22:39:21.013Z,-128.00
2023-04-05T22:41:49.398Z,-128.00
2023-04-05T22:44:21.918Z,-128.00
2023-04-05T22:46:50.560Z,-128.00
2023-04-05T22:49:18.764Z,-128.00
2023-04-05T22:51:47.031Z,-128.00
2023-04-05T22:54:15.254Z,-128.00
2023-04-05T22:56:44.742Z,-128.00
2023-04-05T22:59:12.975Z,-128.00
2023-04-05T23:01:41.576Z,-128.00
2023-04-05T23:04:10.851Z,-128.00
2023-04-05T23:06:40.164Z,-128.00
2023-04-05T23:09:09.122Z,-128.00
2023-04-05T23:11:37.661Z,-128.00
2023-04-05T23:14:06.764Z,-128.00
2023-04-05T23:16:35.704Z,-128.00
2023-04-05T23:19:04.402Z,-128.00
2023-04-05T23:21:32.892Z,-128.00
2023-04-05T23:24:02.691Z,-128.00
2023-04-05T23:26:31.005Z,-128.00
2023-04-05T23:29:00.524Z,-128.00
2023-04-05T23:31:28.964Z,-128.00
2023-04-05T23:33:57.958Z,-128.00
2023-04-05T23:36:30.895Z,-128.00
2023-04-05T23:39:02.250Z,-128.00
2023-04-05T23:41:30.940Z,-128.00
2023-04-05T23:44:00.130Z,-128.00
2023-04-05T23:46:28.355Z,-128.00
2023-04-05T23:48:58.237Z,-128.00
2023-04-05T23:51:26.822Z,-128.00
2023-04-05T23:54:00.691Z,-128.00
2023-04-05T23:56:29.419Z,-128.00
2023-04-05T23:58:57.540Z,-128.00
